Time;durP1;ratioP1;P1;durP2;ratioP2;P2;SDS_P1;SDS_P2;PMS_P1;PMS_P2;Temp;Humidity;BMP_temperature;BMP_pressure;BME280_temperature;BME280_humidity;BME280_pressure;Samples;Min_cycle;Max_cycle;Signal;HPM_P1;HPM_P2
2022/03/12 00:02:04;;;;;;;13.23;11.77;;;2.20;90.20;;;3.00;53.25;98074.41;5205328;28;20190;-59
2022/03/12 00:04:38;;;;;;;13.20;11.73;;;2.20;90.00;;;3.02;53.50;98079.59;5205060;28;20720;-60
2022/03/12 00:07:14;;;;;;;12.63;11.33;;;2.20;90.00;;;2.95;52.56;98083.22;5204764;28;20601;-60
2022/03/12 00:09:47;;;;;;;13.03;11.73;;;2.10;89.00;;;2.97;52.29;98088.38;5205037;28;20224;-60
2022/03/12 00:12:21;;;;;;;14.30;12.83;;;2.10;88.20;;;2.96;53.25;98086.63;5205020;28;20228;-59
2022/03/12 00:14:55;;;;;;;13.33;11.90;;;2.10;90.10;;;2.94;52.57;98089.00;5202314;28;20213;-59
2022/03/12 00:17:29;;;;;;;12.03;10.90;;;2.10;89.40;;;2.97;54.02;98085.88;5205365;28;20224;-59
2022/03/12 00:20:08;;;;;;;12.03;10.83;;;2.10;91.00;;;2.94;53.77;98091.53;5203684;28;20288;-58
2022/03/12 00:22:47;;;;;;;13.03;11.67;;;1.90;91.00;;;2.76;55.86;98092.41;5204448;28;20216;-61
2022/03/12 00:25:25;;;;;;;12.27;11.13;;;1.80;92.50;;;2.64;56.88;98090.53;5204305;28;20201;-53
2022/03/12 00:27:58;;;;;;;13.00;11.53;;;1.80;92.90;;;2.63;56.76;98090.38;5209392;28;20232;-56
2022/03/12 00:30:32;;;;;;;12.53;11.27;;;1.80;93.10;;;2.59;56.67;98084.19;5204930;28;20199;-60
2022/03/12 00:33:05;;;;;;;12.47;11.07;;;1.70;93.00;;;2.64;57.72;98082.97;5204889;28;20271;-60
2022/03/12 00:35:39;;;;;;;12.43;11.23;;;1.80;93.40;;;2.54;57.21;98087.03;5204187;28;20206;-60
2022/03/12 00:38:13;;;;;;;12.17;10.87;;;1.70;92.90;;;2.42;56.25;98097.78;5205541;28;20229;-56
2022/03/12 00:40:46;;;;;;;13.17;11.77;;;1.60;93.10;;;2.43;56.87;98101.19;5203881;28;20197;-57
2022/03/12 00:43:19;;;;;;;12.47;11.27;;;1.60;93.20;;;2.35;55.69;98095.44;5204953;28;20200;-56
2022/03/12 00:45:52;;;;;;;12.27;11.07;;;1.50;92.00;;;2.55;54.96;98094.75;5204273;28;20210;-55
2022/03/12 00:48:26;;;;;;;12.73;11.43;;;1.70;92.20;;;2.57;56.11;98088.19;5203654;28;20233;-54
2022/03/12 00:51:11;;;;;;;11.83;10.37;;;1.80;92.00;;;2.55;55.52;98102.31;5204698;28;20197;-54
2022/03/12 00:53:45;;;;;;;12.40;10.97;;;1.80;91.40;;;2.61;54.40;98095.31;5204386;28;20228;-54
2022/03/12 00:56:18;;;;;;;13.33;12.03;;;1.90;90.60;;;2.55;54.57;98094.75;5204248;28;20206;-56
2022/03/12 00:58:51;;;;;;;13.43;12.03;;;1.80;90.90;;;2.54;55.21;98092.97;5204852;28;20685;-53
2022/03/12 01:01:26;;;;;;;12.17;10.97;;;1.80;91.60;;;2.62;54.49;98106.28;5203904;28;20202;-56
2022/03/12 01:04:00;;;;;;;12.87;11.50;;;1.80;90.90;;;2.63;54.39;98103.91;5204944;28;20278;-55
2022/03/12 01:06:34;;;;;;;12.13;11.03;;;1.90;90.60;;;2.63;53.96;98108.03;5204204;28;20679;-53
2022/03/12 01:09:08;;;;;;;12.30;11.17;;;1.90;90.80;;;2.64;54.52;98114.88;5204885;28;20311;-57
2022/03/12 01:11:43;;;;;;;15.20;12.20;;;1.90;90.90;;;2.64;54.62;98102.28;5203849;28;20204;-60
2022/03/12 01:14:16;;;;;;;13.17;11.83;;;1.90;91.00;;;2.67;54.29;98094.97;5204135;28;20231;-59
2022/03/12 01:16:49;;;;;;;12.20;11.10;;;1.90;91.40;;;2.65;54.77;98096.47;5202823;28;20205;-58
2022/03/12 01:19:22;;;;;;;12.10;10.90;;;1.80;90.80;;;2.56;53.97;98096.53;5204299;28;20575;-58
2022/03/12 01:21:55;;;;;;;11.53;10.33;;;1.70;90.90;;;2.52;54.07;98109.63;5199772;28;20212;-57
2022/03/12 01:24:30;;;;;;;12.23;10.93;;;1.70;91.60;;;2.59;54.04;98103.47;5203937;28;20200;-62
2022/03/12 01:27:04;;;;;;;12.10;11.03;;;1.80;91.20;;;2.54;55.09;98105.56;5203413;28;20219;-59
2022/03/12 01:29:37;;;;;;;13.13;11.23;;;1.80;91.30;;;2.55;53.92;98114.94;5204101;28;20257;-59
2022/03/12 01:32:11;;;;;;;12.93;11.43;;;1.70;91.40;;;2.61;55.56;98104.53;5203982;28;20200;-55
2022/03/12 01:34:43;;;;;;;13.23;11.93;;;1.80;92.00;;;2.65;55.11;98101.50;5203537;28;20201;-55
2022/03/12 01:37:19;;;;;;;11.70;10.50;;;1.80;91.80;;;2.67;56.13;98100.91;5202449;28;20192;-53
2022/03/12 01:39:54;;;;;;;12.67;11.37;;;1.90;92.60;;;2.57;55.16;98093.22;5201539;28;20224;-57
2022/03/12 01:42:27;;;;;;;12.93;11.57;;;1.80;91.70;;;2.59;56.20;98096.78;5203389;28;20210;-58
2022/03/12 01:45:01;;;;;;;13.30;11.87;;;1.60;93.40;;;2.55;56.94;98099.81;5201950;28;20197;-56
2022/03/12 01:47:34;;;;;;;12.80;11.50;;;1.50;93.70;;;2.39;57.30;98100.00;5201116;28;20205;-59
2022/03/12 01:50:08;;;;;;;11.43;9.97;;;1.40;93.40;;;2.29;56.50;98096.50;5203165;28;20209;-55
2022/03/12 01:52:42;;;;;;;12.33;10.50;;;1.40;92.80;;;2.25;56.37;98098.75;5203641;28;20230;-57
2022/03/12 01:55:16;;;;;;;12.17;11.07;;;1.40;93.00;;;2.28;56.84;98089.69;5201104;28;20201;-54
2022/03/12 01:57:50;;;;;;;11.50;10.40;;;1.40;92.80;;;2.25;55.97;98093.69;5203273;28;20203;-59
2022/03/12 02:00:26;;;;;;;12.33;10.93;;;1.40;92.30;;;2.25;57.25;98093.69;5203446;28;20223;-56
2022/03/12 02:03:00;;;;;;;12.57;11.27;;;1.40;92.50;;;2.27;56.55;98091.31;5202863;28;20201;-59
2022/03/12 02:05:34;;;;;;;12.43;10.97;;;1.40;93.00;;;2.26;55.63;98089.53;5202960;28;20255;-55
2022/03/12 02:08:10;;;;;;;12.40;11.20;;;1.40;92.20;;;2.22;58.00;98083.31;5203522;28;20229;-54
2022/03/12 02:10:46;;;;;;;11.70;10.60;;;1.40;93.40;;;2.42;55.84;98082.63;5202858;28;20665;-56
2022/03/12 02:13:19;;;;;;;12.80;11.50;;;1.50;92.40;;;2.24;56.61;98084.38;5203427;28;20210;-58
2022/03/12 02:16:05;;;;;;;12.67;10.57;;;1.40;93.40;;;2.17;56.83;98088.69;5202864;28;20598;-55
2022/03/12 02:18:39;;;;;;;12.60;11.30;;;1.40;93.00;;;2.19;57.40;98093.13;5202757;28;20223;-55
2022/03/12 02:21:12;;;;;;;12.90;10.60;;;1.40;93.60;;;2.23;58.19;98095.22;5203236;28;20563;-55
2022/03/12 02:23:48;;;;;;;12.83;11.50;;;1.40;94.00;;;2.22;57.78;98098.44;5203240;28;20195;-59
2022/03/12 02:26:21;;;;;;;12.10;10.93;;;1.50;93.40;;;2.20;57.97;98094.00;5203451;28;20209;-55
2022/03/12 02:28:54;;;;;;;12.43;11.20;;;1.40;93.60;;;2.19;58.13;98095.66;5203702;28;20219;-56
2022/03/12 02:31:27;;;;;;;12.43;11.17;;;1.40;93.60;;;2.23;58.77;98099.34;5203432;28;20563;-53
2022/03/12 02:34:02;;;;;;;11.73;10.63;;;1.40;94.60;;;2.20;58.17;98099.97;5202671;28;21973;-56
2022/03/12 02:36:35;;;;;;;11.47;10.33;;;1.40;93.80;;;2.21;58.27;98096.69;5202991;28;20200;-59
2022/03/12 02:39:11;;;;;;;12.10;10.80;;;1.40;93.40;;;2.15;57.44;98098.66;5203104;28;20218;-59
2022/03/12 02:41:44;;;;;;;12.07;10.93;;;1.30;93.30;;;2.11;57.86;98099.09;5202434;28;20202;-59
2022/03/12 02:44:21;;;;;;;12.43;10.73;;;1.30;93.40;;;2.17;58.10;98099.66;5199418;28;21577;-56
2022/03/12 02:47:14;;;;;;;11.33;10.23;;;1.40;93.90;;;2.23;57.77;98090.16;5201169;28;20203;-56
2022/03/12 02:49:50;;;;;;;12.03;10.93;;;1.40;93.60;;;2.19;58.47;98095.66;5202309;28;20305;-56
2022/03/12 02:52:27;;;;;;;12.33;11.13;;;1.50;94.00;;;2.23;58.95;98094.28;5203229;28;20197;-59
2022/03/12 02:55:02;;;;;;;11.87;10.67;;;1.50;94.10;;;2.30;57.78;98096.66;5205386;28;20218;-58
2022/03/12 02:57:35;;;;;;;12.97;11.70;;;1.50;93.80;;;2.31;57.95;98100.06;5206482;28;20204;-59
2022/03/12 03:00:10;;;;;;;11.97;10.77;;;1.50;93.80;;;2.27;58.79;98108.09;5207152;28;20657;-58
2022/03/12 03:02:47;;;;;;;11.63;10.43;;;1.50;94.20;;;2.30;58.47;98105.84;5206654;28;20207;-58
2022/03/12 03:05:29;;;;;;;11.47;10.37;;;1.50;93.70;;;2.26;57.44;98099.63;5205866;28;20206;-59
2022/03/12 03:08:04;;;;;;;12.63;10.83;;;1.40;93.10;;;2.23;57.13;98110.34;5204708;28;20238;-60
2022/03/12 03:10:41;;;;;;;11.10;10.10;;;1.40;93.70;;;2.21;59.31;98111.81;5205408;28;20206;-59
2022/03/12 03:13:39;;;;;;;12.47;11.13;;;1.50;94.60;;;2.22;59.22;98111.06;5205942;28;20246;-58
2022/03/12 03:16:21;;;;;;;11.57;10.47;;;1.50;94.40;;;2.11;59.02;98105.78;5207035;28;20202;-59
2022/03/12 03:18:56;;;;;;;12.23;10.97;;;1.40;93.70;;;2.16;58.93;98113.00;5205249;28;20227;-58
2022/03/12 03:21:29;;;;;;;12.27;11.13;;;1.40;94.40;;;2.22;58.10;98118.63;5206057;28;20202;-59
2022/03/12 03:24:02;;;;;;;11.77;10.77;;;1.40;93.80;;;2.22;57.48;98117.75;5205878;28;20196;-58
2022/03/12 03:26:56;;;;;;;12.00;10.80;;;1.40;93.10;;;2.18;57.48;98114.06;5205141;28;20202;-57
2022/03/12 03:29:31;;;;;;;11.50;10.30;;;1.40;93.60;;;2.25;56.83;98126.47;5206188;28;20681;-58
2022/03/12 03:32:06;;;;;;;11.43;10.37;;;1.40;93.10;;;2.33;57.50;98121.28;5205528;28;20207;-59
2022/03/12 03:34:39;;;;;;;11.83;10.50;;;1.50;93.20;;;2.38;57.29;98132.69;5205383;28;20218;-58
2022/03/12 03:37:12;;;;;;;11.33;10.33;;;1.60;93.70;;;2.40;57.00;98128.63;5205404;28;20219;-59
2022/03/12 03:39:45;;;;;;;12.03;10.83;;;1.60;92.70;;;2.43;57.03;98136.50;5205404;28;20608;-59
2022/03/12 03:42:22;;;;;;;11.60;10.40;;;1.60;93.50;;;2.46;57.58;98136.75;5205645;28;20575;-58
2022/03/12 03:44:59;;;;;;;12.17;10.87;;;1.70;93.70;;;2.50;56.96;98146.41;5205773;28;20189;-59
2022/03/12 03:47:32;;;;;;;11.00;9.90;;;1.70;93.60;;;2.57;57.53;98147.84;5206502;28;20204;-58
2022/03/12 03:50:08;;;;;;;12.47;11.17;;;1.70;93.40;;;2.62;58.15;98157.63;5206107;28;20584;-58
2022/03/12 03:52:41;;;;;;;12.10;10.90;;;1.70;94.40;;;2.58;58.23;98159.75;5205724;28;20202;-59
2022/03/12 03:55:14;;;;;;;11.43;10.30;;;1.70;94.70;;;2.51;58.17;98159.91;5205338;28;20574;-59
2022/03/12 03:57:48;;;;;;;11.93;10.73;;;1.60;94.00;;;2.64;57.81;98151.09;5205540;28;20209;-59
2022/03/12 04:00:22;;;;;;;12.30;11.10;;;1.70;93.80;;;2.51;57.79;98155.75;5205213;28;20205;-59
2022/03/12 04:03:02;;;;;;;11.07;10.07;;;1.60;93.70;;;2.28;57.42;98153.63;5205556;28;20206;-59
2022/03/12 04:05:38;;;;;;;12.10;10.93;;;1.40;93.60;;;2.22;57.99;98158.97;5204422;28;20196;-58
2022/03/12 04:08:11;;;;;;;12.50;11.27;;;1.40;93.60;;;2.27;58.55;98156.00;5204984;28;20240;-59
2022/03/12 04:10:44;;;;;;;12.73;11.53;;;1.40;94.70;;;2.25;58.67;98159.25;5205197;28;20215;-59
2022/03/12 04:13:22;;;;;;;12.90;11.37;;;1.40;94.10;;;2.19;58.31;98158.69;5205431;28;20209;-59
2022/03/12 04:15:58;;;;;;;11.67;10.57;;;1.40;93.70;;;2.17;57.08;98164.31;5202894;28;20214;-58
2022/03/12 04:18:32;;;;;;;12.47;11.23;;;1.30;93.30;;;2.22;57.59;98171.56;5204870;28;20218;-59
2022/03/12 04:21:05;;;;;;;12.17;10.70;;;1.40;93.90;;;2.31;58.12;98166.50;5205446;28;20201;-59
2022/03/12 04:23:38;;;;;;;11.77;10.57;;;1.50;94.00;;;2.38;58.03;98165.47;5205271;28;20573;-56
2022/03/12 04:26:11;;;;;;;12.30;11.00;;;1.60;94.10;;;2.42;57.69;98165.88;5205849;28;20203;-58
2022/03/12 04:28:46;;;;;;;12.27;10.97;;;1.60;93.50;;;2.41;57.80;98158.19;5204645;28;20259;-58
2022/03/12 04:31:19;;;;;;;11.47;10.47;;;1.60;93.60;;;2.39;56.66;98162.19;5205473;28;20203;-60
2022/03/12 04:33:53;;;;;;;11.93;10.40;;;1.60;92.50;;;2.41;56.25;98160.69;5204817;28;20204;-59
2022/03/12 04:36:26;;;;;;;12.20;11.00;;;1.60;92.90;;;2.42;56.21;98162.47;5205078;28;20671;-59
2022/03/12 04:39:00;;;;;;;11.47;10.27;;;1.60;92.70;;;2.42;55.69;98165.88;5204799;28;20230;-59
2022/03/12 04:41:34;;;;;;;11.50;10.40;;;1.60;92.30;;;2.47;56.46;98172.25;5200454;28;20203;-60
2022/03/12 04:44:09;;;;;;;12.30;10.83;;;1.70;92.70;;;2.50;55.42;98171.63;5205005;28;20666;-59
2022/03/12 04:46:43;;;;;;;11.63;10.53;;;1.70;92.40;;;2.55;56.31;98172.97;5204813;28;20193;-58
2022/03/12 04:49:16;;;;;;;12.10;10.77;;;1.80;93.00;;;2.60;56.25;98173.38;5200929;28;20356;-59
2022/03/12 04:51:49;;;;;;;12.93;11.63;;;1.80;92.80;;;2.62;55.14;98175.28;5204245;28;20197;-59
2022/03/12 04:54:23;;;;;;;12.30;11.10;;;1.70;91.90;;;2.53;55.23;98171.03;5203738;28;20590;-59
2022/03/12 04:56:56;;;;;;;13.20;11.70;;;1.70;91.90;;;2.50;54.90;98164.06;5204533;28;20230;-59
2022/03/12 04:59:31;;;;;;;12.83;11.63;;;1.60;92.20;;;2.45;55.57;98157.72;5204328;28;20243;-59
2022/03/12 05:02:09;;;;;;;12.10;10.93;;;1.60;92.30;;;2.46;55.65;98169.56;5203870;28;20683;-58
2022/03/12 05:04:42;;;;;;;12.10;11.00;;;1.60;92.70;;;2.46;56.97;98164.50;5204858;28;20770;-59
2022/03/12 05:07:15;;;;;;;12.60;11.30;;;1.70;92.80;;;2.47;55.79;98168.84;5204483;28;20314;-58
2022/03/12 05:09:48;;;;;;;13.27;11.87;;;1.60;92.60;;;2.44;55.47;98173.59;5203479;28;20590;-59
2022/03/12 05:12:24;;;;;;;14.33;11.63;;;1.60;92.20;;;2.41;56.01;98173.31;5202693;28;20218;-60
2022/03/12 05:14:58;;;;;;;13.00;11.77;;;1.60;92.30;;;2.46;55.53;98174.59;5203958;28;20224;-59
2022/03/12 05:17:34;;;;;;;12.80;11.53;;;1.60;92.20;;;2.36;56.25;98184.59;5199473;28;20205;-59
2022/03/12 05:20:09;;;;;;;12.23;11.03;;;1.50;92.30;;;2.33;55.68;98182.69;5202856;28;20294;-60
2022/03/12 05:22:42;;;;;;;13.23;11.37;;;1.50;92.60;;;2.36;56.75;98192.16;5203836;28;20200;-59
2022/03/12 05:25:19;;;;;;;12.47;10.60;;;1.60;92.90;;;2.38;56.69;98200.78;5204448;28;20202;-59
2022/03/12 05:27:54;;;;;;;13.53;11.83;;;1.50;93.00;;;2.41;56.99;98190.97;5203439;28;20286;-60
2022/03/12 05:30:29;;;;;;;12.60;11.30;;;1.60;93.30;;;2.49;55.81;98190.06;5195356;28;20249;-59
2022/03/12 05:33:02;;;;;;;12.57;11.37;;;1.60;92.30;;;2.44;55.41;98191.25;5201904;28;20204;-57
2022/03/12 05:35:41;;;;;;;13.00;11.37;;;1.60;92.50;;;2.46;56.58;98197.31;5203426;28;20575;-59
2022/03/12 05:38:14;;;;;;;13.03;11.60;;;1.70;92.50;;;2.50;56.25;98195.97;5203710;28;20595;-58
2022/03/12 05:40:50;;;;;;;12.23;11.13;;;1.70;92.60;;;2.54;55.43;98193.00;5203375;28;20194;-60
2022/03/12 05:43:25;;;;;;;12.83;11.53;;;1.70;92.80;;;2.56;56.53;98188.97;5203214;28;20209;-59
2022/03/12 05:46:00;;;;;;;12.50;11.23;;;1.80;92.90;;;2.57;56.17;98189.09;5200174;28;20202;-59
2022/03/12 05:48:34;;;;;;;12.77;11.47;;;1.80;92.30;;;2.56;55.70;98197.44;5199550;28;20240;-59
2022/03/12 05:51:09;;;;;;;13.23;11.93;;;1.80;92.30;;;2.54;56.05;98203.97;5201100;28;20195;-59
2022/03/12 05:53:43;;;;;;;14.63;11.80;;;1.70;92.80;;;2.56;57.59;98199.94;5199654;28;20193;-59
2022/03/12 05:56:16;;;;;;;12.70;11.50;;;1.80;93.10;;;2.58;57.86;98210.22;5200836;28;20225;-59
2022/03/12 05:58:50;;;;;;;13.20;11.93;;;1.80;93.40;;;2.63;56.51;98208.97;5203520;28;20583;-59
2022/03/12 06:01:24;;;;;;;13.40;12.10;;;1.90;93.00;;;2.64;57.51;98206.59;5203091;28;20211;-59
2022/03/12 06:04:00;;;;;;;13.87;12.53;;;1.90;93.50;;;2.77;57.21;98212.78;5201804;28;20676;-59
2022/03/12 06:06:35;;;;;;;12.37;10.97;;;2.00;93.20;;;2.81;56.52;98215.75;5202748;28;20207;-58
2022/03/12 06:09:08;;;;;;;13.07;11.87;;;2.00;92.60;;;2.78;55.57;98214.59;5204204;28;20257;-58
2022/03/12 06:11:42;;;;;;;12.73;11.57;;;2.00;92.20;;;2.79;55.17;98217.22;5203251;28;20197;-59
2022/03/12 06:14:16;;;;;;;13.07;11.67;;;2.00;92.20;;;2.73;55.34;98214.13;5204135;28;20201;-55
2022/03/12 06:16:50;;;;;;;12.53;11.33;;;1.90;92.10;;;2.76;55.58;98222.00;5202551;28;20225;-58
2022/03/12 06:19:24;;;;;;;14.07;12.60;;;2.00;92.20;;;2.76;55.30;98227.03;5202130;28;20745;-55
2022/03/12 06:21:57;;;;;;;14.10;12.63;;;1.90;92.30;;;2.84;55.16;98237.84;5199974;28;20194;-55
2022/03/12 06:24:30;;;;;;;12.97;11.67;;;2.00;92.40;;;2.86;56.31;98241.38;5201795;28;20205;-57
2022/03/12 06:27:04;;;;;;;14.10;12.47;;;2.00;92.60;;;2.92;55.71;98250.44;5200378;28;20205;-59
2022/03/12 06:29:37;;;;;;;13.33;12.03;;;2.10;92.80;;;3.06;55.93;98248.28;5203625;28;20228;-58
2022/03/12 06:32:14;;;;;;;13.07;11.83;;;2.00;93.80;;;3.14;57.64;98250.75;5205355;28;20201;-58
2022/03/12 06:34:47;;;;;;;15.17;12.90;;;1.90;95.10;;;3.08;58.49;98252.72;5204556;28;20193;-59
2022/03/12 06:37:20;;;;;;;14.83;13.30;;;2.00;95.00;;;3.05;58.36;98247.41;5205441;28;20678;-59
2022/03/12 06:39:55;;;;;;;13.40;11.90;;;2.00;95.20;;;3.06;58.66;98259.28;5204987;28;20218;-59
2022/03/12 06:42:29;;;;;;;13.67;11.73;;;2.10;94.80;;;3.08;58.39;98256.88;5206089;28;20197;-57
2022/03/12 06:45:02;;;;;;;14.33;12.93;;;2.10;94.40;;;3.17;58.54;98265.31;5206777;28;20580;-58
2022/03/12 06:47:38;;;;;;;14.67;13.20;;;2.10;95.10;;;3.25;58.26;98260.97;5205711;28;20198;-59
2022/03/12 06:50:16;;;;;;;15.00;13.40;;;2.10;95.40;;;3.27;59.63;98260.34;5205529;28;20220;-60
2022/03/12 06:52:51;;;;;;;15.23;13.63;;;2.00;96.20;;;3.29;60.00;98263.00;5204958;28;20198;-59
2022/03/12 06:55:28;;;;;;;15.50;13.90;;;2.20;96.30;;;3.35;59.30;98259.44;5199283;28;20225;-58
2022/03/12 06:58:01;;;;;;;17.00;14.70;;;2.30;95.70;;;3.57;58.88;98261.34;5205379;28;20213;-58
2022/03/12 07:00:35;;;;;;;15.33;13.83;;;2.40;95.20;;;3.78;57.64;98252.31;5205220;28;20578;-59
2022/03/12 07:03:09;;;;;;;13.80;12.40;;;2.50;95.20;;;3.95;56.22;98257.22;5206749;28;20221;-59
2022/03/12 07:05:43;;;;;;;14.20;12.67;;;2.80;94.00;;;4.17;57.21;98259.97;5208924;28;20288;-59
2022/03/12 07:08:16;;;;;;;14.40;12.90;;;2.90;94.70;;;4.46;55.93;98254.97;5206236;28;20706;-58
2022/03/12 07:10:50;;;;;;;14.43;13.07;;;3.20;93.70;;;4.82;54.74;98246.19;5204070;28;20209;-59
2022/03/12 07:13:23;;;;;;;14.47;12.97;;;3.60;93.30;;;4.92;53.01;98255.44;5198793;28;20202;-58
2022/03/12 07:15:56;;;;;;;13.40;12.10;;;3.80;91.70;;;5.28;52.05;98245.00;5203586;28;20780;-58
2022/03/12 07:18:31;;;;;;;12.80;11.67;;;4.10;91.10;;;5.50;51.75;98252.75;5203834;28;20784;-59
2022/03/12 07:21:04;;;;;;;13.00;11.70;;;4.40;91.10;;;5.79;50.46;98247.53;5204360;28;20250;-60
2022/03/12 07:23:37;;;;;;;13.60;12.40;;;4.70;90.00;;;6.03;48.79;98252.84;5204514;28;20210;-60
2022/03/12 07:26:10;;;;;;;12.30;11.10;;;5.00;88.50;;;6.04;46.39;98244.50;5200854;28;20203;-60
2022/03/12 07:28:44;;;;;;;12.53;11.33;;;5.00;84.40;;;6.47;46.79;98251.34;5204755;28;20222;-59
2022/03/12 07:31:17;;;;;;;11.83;10.63;;;5.30;85.00;;;6.74;44.45;98259.34;5205170;28;20205;-59
2022/03/12 07:33:52;;;;;;;12.23;11.07;;;5.60;82.70;;;6.90;44.58;98261.44;5200770;28;20198;-59
2022/03/12 07:36:25;;;;;;;13.07;11.77;;;5.80;81.90;;;6.94;43.90;98258.34;5203884;28;20220;-60
2022/03/12 07:38:59;;;;;;;12.47;11.37;;;5.80;80.30;;;7.03;42.99;98260.72;5204769;28;20699;-59
2022/03/12 07:41:32;;;;;;;12.67;11.20;;;6.00;79.60;;;7.39;42.04;98260.09;5203590;28;20565;-60
2022/03/12 07:44:07;;;;;;;13.43;12.03;;;6.30;78.50;;;7.26;42.55;98263.34;5204192;28;20191;-60
2022/03/12 07:46:40;;;;;;;13.63;12.23;;;6.20;78.50;;;7.24;42.71;98267.47;5203963;28;20193;-60
2022/03/12 07:49:15;;;;;;;13.30;12.00;;;6.20;80.40;;;7.33;42.50;98259.66;5204284;28;20653;-60
2022/03/12 07:51:48;;;;;;;13.57;12.13;;;6.20;78.80;;;7.36;41.36;98267.50;5204091;28;20203;-60
2022/03/12 07:54:21;;;;;;;14.57;12.63;;;6.30;77.50;;;7.31;41.23;98264.59;5204750;28;20190;-60
2022/03/12 07:56:54;;;;;;;14.03;12.63;;;6.40;77.00;;;7.51;41.26;98271.19;5206666;28;20301;-60
2022/03/12 07:59:27;;;;;;;13.20;11.80;;;6.60;77.00;;;7.43;41.10;98277.34;5204900;28;20229;-58
2022/03/12 08:02:00;;;;;;;13.77;12.37;;;6.40;76.60;;;7.43;41.06;98279.91;5204162;28;20202;-60
2022/03/12 08:04:35;;;;;;;13.57;12.17;;;6.40;76.90;;;7.51;41.45;98268.66;5202748;28;20689;-60
2022/03/12 08:07:08;;;;;;;13.90;12.67;;;6.30;77.60;;;8.01;40.20;98275.72;5202785;28;20197;-60
2022/03/12 08:09:46;;;;;;;13.13;11.93;;;7.10;75.60;;;7.72;40.46;98281.19;5203513;28;20221;-60
2022/03/12 08:12:19;;;;;;;13.07;11.77;;;6.90;74.90;;;7.93;41.26;98272.63;5204696;28;20597;-60
2022/03/12 08:14:52;;;;;;;13.73;12.53;;;7.10;76.00;;;8.29;39.74;98273.53;5203252;28;20217;-60
2022/03/12 08:17:25;;;;;;;13.00;11.70;;;7.50;74.30;;;8.16;39.61;98270.91;5197717;28;20292;-59
2022/03/12 08:20:00;;;;;;;13.40;12.10;;;7.50;73.60;;;8.01;40.11;98266.44;5202956;28;20253;-59
2022/03/12 08:22:33;;;;;;;13.50;12.13;;;7.30;73.40;;;8.00;40.17;98267.22;5203753;28;20702;-60
2022/03/12 08:25:09;;;;;;;14.70;13.23;;;7.10;74.40;;;8.31;39.62;98264.34;5202985;28;20576;-60
2022/03/12 08:27:42;;;;;;;14.63;13.13;;;7.50;73.50;;;8.35;39.49;98259.59;5199582;28;20873;-58
2022/03/12 08:30:16;;;;;;;15.77;14.10;;;7.50;72.90;;;8.46;39.11;98264.59;5197035;28;20704;-58
2022/03/12 08:32:49;;;;;;;12.73;11.53;;;7.50;73.30;;;8.73;38.92;98260.59;5202961;28;20200;-60
2022/03/12 08:35:24;;;;;;;13.10;11.90;;;7.90;72.40;;;8.97;38.88;98256.31;5205093;28;20206;-59
2022/03/12 08:37:57;;;;;;;14.37;12.70;;;8.20;72.30;;;9.24;37.88;98252.22;5204501;28;20228;-59
2022/03/12 08:40:31;;;;;;;13.33;12.13;;;8.50;70.70;;;9.19;36.69;98257.03;5205001;28;20289;-60
2022/03/12 08:43:04;;;;;;;14.37;12.97;;;8.50;68.80;;;9.32;37.54;98256.19;5204537;28;20193;-59
2022/03/12 08:45:38;;;;;;;13.07;11.77;;;8.40;69.60;;;9.44;36.81;98253.56;5212714;28;20258;-60
2022/03/12 08:48:12;;;;;;;13.93;12.53;;;8.50;69.70;;;9.53;37.93;98250.75;5202605;28;20620;-60
2022/03/12 08:50:47;;;;;;;12.33;11.17;;;8.70;70.20;;;9.69;36.56;98244.22;5204469;28;20198;-59
2022/03/12 08:53:21;;;;;;;13.23;11.97;;;8.80;68.90;;;9.99;36.25;98252.16;5204577;28;20202;-60
2022/03/12 08:55:54;;;;;;;13.90;12.50;;;9.40;67.70;;;10.11;37.07;98249.53;5204536;28;20286;-59
2022/03/12 08:58:29;;;;;;;13.67;12.27;;;9.40;68.60;;;10.33;35.16;98239.94;5204406;28;20222;-59
2022/03/12 09:01:06;;;;;;;13.20;11.90;;;9.70;66.90;;;10.56;35.31;98248.19;5203856;28;20681;-59
2022/03/12 09:03:40;;;;;;;13.93;12.43;;;9.90;66.70;;;10.61;35.18;98244.22;5201371;28;20206;-59
2022/03/12 09:06:15;;;;;;;13.37;12.17;;;9.90;68.00;;;10.88;34.18;98241.63;5200995;28;20216;-60
2022/03/12 09:08:48;;;;;;;13.97;12.60;;;10.20;65.70;;;10.49;35.04;98243.47;5200285;28;20228;-60
2022/03/12 09:11:22;;;;;;;13.80;12.40;;;9.70;66.60;;;10.62;35.00;98240.03;5198635;28;20209;-60
2022/03/12 09:13:55;;;;;;;13.10;11.80;;;9.70;67.40;;;10.83;34.84;98234.56;5203437;28;20640;-60
2022/03/12 09:16:30;;;;;;;13.83;12.53;;;9.90;67.30;;;10.85;35.34;98233.78;5204424;28;20193;-59
2022/03/12 09:19:03;;;;;;;13.67;12.27;;;10.10;67.50;;;11.18;34.22;98233.25;5203923;28;20259;-59
2022/03/12 09:21:38;;;;;;;14.47;12.97;;;10.30;65.70;;;11.18;34.50;98232.38;5202515;28;20725;-59
2022/03/12 09:24:12;;;;;;;13.83;12.10;;;10.30;65.40;;;11.19;35.19;98224.81;5204205;28;20205;-60
2022/03/12 09:26:45;;;;;;;13.53;12.30;;;10.40;66.30;;;11.33;34.40;98225.66;5204314;28;20823;-60
2022/03/12 09:29:18;;;;;;;14.33;12.90;;;10.60;66.30;;;11.43;33.44;98225.38;5203691;28;20320;-60
2022/03/12 09:31:51;;;;;;;14.10;12.63;;;10.70;64.90;;;11.57;33.89;98228.78;5203675;28;20201;-59
2022/03/12 09:34:24;;;;;;;14.73;13.23;;;10.80;64.60;;;11.76;33.21;98230.75;5203855;28;20665;-60
2022/03/12 09:36:59;;;;;;;14.37;12.97;;;11.00;64.50;;;11.80;33.66;98234.34;5201744;28;20240;-58
2022/03/12 09:39:32;;;;;;;15.73;12.77;;;11.10;64.20;;;12.04;33.60;98230.66;5202013;28;20221;-60
2022/03/12 09:42:06;;;;;;;14.97;13.47;;;11.40;63.80;;;11.85;33.43;98233.88;5206177;28;20194;-58
2022/03/12 09:44:39;;;;;;;14.37;12.97;;;11.30;63.60;;;12.08;32.85;98232.63;5205102;28;20193;-57
2022/03/12 09:47:14;;;;;;;14.47;13.10;;;11.40;62.50;;;11.99;33.13;98236.31;5205037;28;20194;-57
2022/03/12 09:49:47;;;;;;;15.67;14.07;;;11.20;63.90;;;12.17;33.17;98230.59;5204587;28;20708;-58
2022/03/12 09:52:22;;;;;;;15.50;14.00;;;11.40;64.00;;;12.15;33.03;98231.28;5205074;28;20206;-57
2022/03/12 09:54:55;;;;;;;14.38;13.07;;;11.50;63.60;;;12.31;33.53;98222.78;5204240;28;20292;-59
2022/03/12 09:57:28;;;;;;;15.02;13.48;;;11.60;64.00;;;12.15;32.50;98227.03;5204651;28;20229;-58
2022/03/12 10:00:04;;;;;;;14.55;13.07;;;11.40;62.60;;;12.35;33.52;98215.34;5205030;28;20213;-54
2022/03/12 10:02:37;;;;;;;14.60;13.10;;;11.50;64.30;;;12.62;32.37;98213.44;5204837;28;20194;-54
2022/03/12 10:05:13;;;;;;;15.10;13.50;;;11.90;63.00;;;12.79;32.54;98222.06;5206680;28;20202;-57
2022/03/12 10:07:47;;;;;;;15.30;13.70;;;12.20;62.60;;;12.90;32.16;98216.59;5208986;28;20635;-58
2022/03/12 10:10:22;;;;;;;14.77;13.27;;;12.30;62.20;;;12.88;32.06;98203.69;5209054;28;20201;-57
2022/03/12 10:12:55;;;;;;;15.57;13.98;;;12.30;62.20;;;13.08;32.33;98205.63;5209411;28;20190;-57
2022/03/12 10:15:29;;;;;;;15.25;13.75;;;12.50;61.70;;;13.21;31.46;98204.59;5208968;28;20204;-57
2022/03/12 10:18:02;;;;;;;15.77;14.05;;;12.80;60.80;;;13.05;31.36;98207.16;5204153;28;20328;-56
2022/03/12 10:20:36;;;;;;;14.93;13.43;;;12.60;61.00;;;12.94;32.12;98193.75;5208995;28;20217;-57
2022/03/12 10:23:10;;;;;;;15.90;14.43;;;12.40;62.40;;;12.91;32.70;98192.72;5209085;28;20205;-58
2022/03/12 10:25:45;;;;;;;15.80;14.30;;;12.40;62.30;;;13.07;32.58;98187.56;5209086;28;20538;-57
2022/03/12 10:28:18;;;;;;;14.65;13.32;;;12.50;62.00;;;13.19;32.46;98184.78;5208726;28;20219;-57
2022/03/12 10:30:51;;;;;;;16.20;14.52;;;12.70;61.80;;;13.46;31.97;98186.22;5208514;28;20196;-58
2022/03/12 10:33:25;;;;;;;16.27;14.55;;;13.00;61.40;;;13.46;33.63;98183.66;5208720;28;20209;-57
2022/03/12 10:36:10;;;;;;;15.52;13.93;;;13.10;62.90;;;13.46;32.82;98182.78;5208765;28;20204;-57
2022/03/12 10:38:47;;;;;;;16.33;13.85;;;12.90;63.70;;;13.37;32.59;98175.50;5207731;28;20597;-57
2022/03/12 10:41:29;;;;;;;16.33;14.63;;;12.90;63.30;;;13.33;34.11;98178.69;5206106;28;20197;-57
2022/03/12 10:44:03;;;;;;;16.38;14.80;;;12.80;64.70;;;13.41;33.56;98182.53;5206093;28;20212;-54
2022/03/12 10:46:42;;;;;;;15.15;13.75;;;12.70;64.20;;;13.49;33.79;98167.53;5207747;28;20573;-53
2022/03/12 10:49:23;;;;;;;15.13;13.38;;;12.80;65.40;;;13.62;33.90;98166.44;5204880;28;20225;-52